createdAt,value
2018-09-19T00:02:35.192Z,13.50
2018-09-19T00:05:16.724Z,13.50
2018-09-19T00:07:46.448Z,13.70
2018-09-19T01:02:36.080Z,13.90
2018-09-19T01:05:05.224Z,13.50
2018-09-19T01:07:34.274Z,13.70
2018-09-19T01:10:03.317Z,14.00
2018-09-19T02:02:43.342Z,13.40
2018-09-19T02:05:12.037Z,13.40
2018-09-19T02:07:40.764Z,13.60
2018-09-19T03:02:35.025Z,13.30
2018-09-19T03:05:03.737Z,13.30
2018-09-19T03:07:32.425Z,13.40
2018-09-19T03:10:01.165Z,13.50
2018-09-19T04:02:39.758Z,12.90
2018-09-19T04:05:08.478Z,12.80
2018-09-19T04:07:55.434Z,12.90
2018-09-19T05:02:36.125Z,13.50
2018-09-19T05:05:05.156Z,13.70
2018-09-19T05:07:33.865Z,13.80
2018-09-19T05:10:02.625Z,14.00
2018-09-19T06:02:34.865Z,15.10
2018-09-19T06:05:20.471Z,15.20
2018-09-19T06:07:49.237Z,15.50
2018-09-19T07:02:49.542Z,17.20
2018-09-19T07:05:18.333Z,17.40
2018-09-19T07:07:47.086Z,17.70
2018-09-19T08:02:34.957Z,20.20
2018-09-19T08:05:03.676Z,20.30
2018-09-19T08:07:32.428Z,20.60
2018-09-19T08:10:01.145Z,20.90
2018-09-19T09:02:36.120Z,22.70
2018-09-19T09:05:04.913Z,22.70
2018-09-19T09:07:33.605Z,22.90
2018-09-19T09:10:02.426Z,23.20
2018-09-19T10:02:35.339Z,24.20
2018-09-19T10:05:04.087Z,24.40
2018-09-19T10:07:32.781Z,24.60
2018-09-19T11:02:35.005Z,25.50
2018-09-19T11:05:03.748Z,25.70
2018-09-19T11:07:32.459Z,25.90
2018-09-19T11:10:01.234Z,26.20
2018-09-19T12:02:35.853Z,26.60
2018-09-19T12:05:04.580Z,26.60
2018-09-19T12:07:33.289Z,26.80
2018-09-19T12:10:02.010Z,27.00
2018-09-19T13:02:42.127Z,26.30
2018-09-19T13:05:10.829Z,26.40
2018-09-19T13:07:39.517Z,26.60
2018-09-19T14:02:37.779Z,26.20
2018-09-19T14:05:06.517Z,26.70
2018-09-19T15:02:39.409Z,24.80
2018-09-19T15:05:08.093Z,24.70
2018-09-19T15:07:36.853Z,24.90
2018-09-19T15:10:05.976Z,24.90
2018-09-19T19:02:38.842Z,17.10
2018-09-19T19:05:07.591Z,17.10
2018-09-19T19:07:38.386Z,17.40
2018-09-19T19:10:07.218Z,17.50
2018-09-19T20:02:35.065Z,16.50
2018-09-19T20:05:03.883Z,16.40
2018-09-19T20:07:32.620Z,16.50
2018-09-19T20:10:01.798Z,16.60
2018-09-19T21:02:38.525Z,14.80
2018-09-19T21:05:07.366Z,14.80
2018-09-19T21:07:36.214Z,15.00
2018-09-19T21:10:04.998Z,15.20
2018-09-19T22:02:38.214Z,13.90
2018-09-19T22:05:07.100Z,13.90
2018-09-19T22:07:35.788Z,14.10
2018-09-19T22:10:05.040Z,14.20
2018-09-19T22:12:33.746Z,14.40
2018-09-19T22:15:02.438Z,14.50
2018-09-19T22:17:31.174Z,14.70
2018-09-19T22:20:00.119Z,14.80
2018-09-19T22:22:28.853Z,14.90
2018-09-19T22:24:57.583Z,14.90
2018-09-19T22:27:26.286Z,15.00
2018-09-19T22:29:54.961Z,15.10
2018-09-19T22:32:23.688Z,15.00
2018-09-19T22:34:52.473Z,15.00
2018-09-19T22:37:21.150Z,15.00
2018-09-19T22:39:50.216Z,15.00
2018-09-19T22:42:18.912Z,15.00
2018-09-19T22:44:47.608Z,15.00
2018-09-19T22:47:16.301Z,15.00
2018-09-19T22:49:44.973Z,15.00
2018-09-19T22:52:13.670Z,14.90
2018-09-19T22:54:42.453Z,14.90
2018-09-19T22:57:11.140Z,14.90
2018-09-19T22:59:39.838Z,14.80
2018-09-19T23:02:08.594Z,14.80
2018-09-19T23:04:37.305Z,14.80
2018-09-19T23:07:06.103Z,14.80
2018-09-19T23:09:34.827Z,14.70
